createdAt,value
2023-03-04T00:01:54.651Z,1.77
2023-03-04T00:04:39.926Z,1.23
2023-03-04T00:07:25.307Z,1.52
2023-03-04T00:10:11.682Z,1.00
2023-03-04T00:12:57.011Z,1.42
2023-03-04T00:15:42.558Z,1.27
2023-03-04T00:18:28.298Z,1.25
2023-03-04T00:21:13.571Z,1.92
2023-03-04T00:23:58.891Z,1.48
2023-03-04T00:26:44.246Z,1.55
2023-03-04T00:29:29.598Z,2.17
2023-03-04T00:32:16.313Z,2.00
2023-03-04T00:35:01.741Z,1.67
2023-03-04T00:37:47.286Z,2.83
2023-03-04T00:40:32.736Z,2.47
2023-03-04T00:43:18.014Z,2.30
2023-03-04T00:46:03.410Z,3.75
2023-03-04T00:48:48.654Z,3.65
2023-03-04T00:51:34.414Z,2.70
2023-03-04T00:54:19.624Z,1.73
2023-03-04T00:57:05.477Z,1.33
2023-03-04T00:59:51.147Z,1.23
2023-03-04T01:02:36.617Z,1.42
2023-03-04T01:05:22.646Z,2.00
2023-03-04T01:08:08.073Z,1.65
2023-03-04T01:10:53.487Z,1.27
2023-03-04T01:13:39.824Z,1.08
2023-03-04T01:16:25.163Z,0.82
2023-03-04T01:19:10.679Z,1.13
2023-03-04T01:21:56.106Z,1.45
2023-03-04T01:24:41.366Z,1.67
2023-03-04T01:27:26.689Z,1.00
2023-03-04T01:30:12.625Z,1.10
2023-03-04T01:32:58.916Z,1.25
2023-03-04T01:35:44.190Z,1.83
2023-03-04T01:38:29.413Z,1.10
2023-03-04T01:41:19.584Z,1.10
2023-03-04T01:44:06.204Z,1.15
2023-03-04T01:46:56.223Z,0.90
2023-03-04T01:49:43.633Z,1.08
2023-03-04T01:52:29.149Z,1.00
2023-03-04T01:55:20.223Z,0.90
2023-03-04T01:58:06.032Z,0.80
2023-03-04T02:00:51.298Z,1.45
2023-03-04T02:03:37.414Z,0.75
2023-03-04T02:06:22.898Z,1.17
2023-03-04T02:09:08.952Z,1.30
2023-03-04T02:11:54.905Z,1.50
2023-03-04T02:14:40.239Z,1.52
2023-03-04T02:17:27.159Z,1.83
2023-03-04T02:20:18.530Z,1.58
2023-03-04T02:23:10.248Z,1.83
2023-03-04T02:26:14.664Z,1.13
2023-03-04T02:29:01.840Z,2.28
2023-03-04T02:31:50.634Z,1.63
2023-03-04T02:34:37.461Z,1.77
2023-03-04T02:37:22.871Z,1.80
2023-03-04T02:40:21.951Z,1.70
2023-03-04T02:43:11.599Z,2.03
2023-03-04T02:45:57.461Z,2.15
2023-03-04T02:48:43.111Z,2.60
2023-03-04T02:51:28.514Z,2.47
2023-03-04T02:54:22.294Z,1.92
2023-03-04T02:57:10.986Z,2.25
2023-03-04T02:59:59.361Z,1.80
2023-03-04T03:02:46.320Z,1.88
2023-03-04T03:05:34.343Z,1.75
2023-03-04T03:08:21.591Z,1.75
2023-03-04T03:11:08.927Z,2.13
2023-03-04T03:13:55.772Z,2.05
2023-03-04T03:16:41.169Z,2.20
2023-03-04T03:19:26.560Z,2.33
2023-03-04T03:22:13.528Z,2.05
2023-03-04T03:24:58.722Z,1.67
2023-03-04T03:27:44.880Z,2.00
2023-03-04T03:30:31.889Z,2.45
2023-03-04T03:33:17.163Z,2.40
2023-03-04T03:36:03.275Z,2.35
2023-03-04T03:38:48.833Z,2.45
2023-03-04T03:41:34.340Z,2.45
2023-03-04T03:44:19.717Z,1.88
2023-03-04T03:47:05.191Z,2.25
2023-03-04T03:49:50.699Z,1.95
2023-03-04T03:52:36.262Z,2.45
2023-03-04T03:55:22.515Z,2.33
2023-03-04T03:58:08.048Z,2.13
2023-03-04T04:00:53.446Z,2.47
2023-03-04T04:03:38.995Z,2.28
2023-03-04T04:06:24.546Z,2.72
2023-03-04T04:09:09.979Z,2.60
2023-03-04T04:11:55.486Z,2.25
2023-03-04T04:14:41.444Z,3.08
2023-03-04T04:17:27.107Z,2.20
2023-03-04T04:20:12.800Z,2.50
2023-03-04T04:22:58.093Z,2.58
2023-03-04T04:25:43.336Z,2.45
2023-03-04T04:28:28.754Z,2.90
2023-03-04T04:31:14.207Z,2.08
2023-03-04T04:33:59.562Z,2.65
2023-03-04T04:36:45.259Z,2.78
2023-03-04T04:39:30.734Z,2.25
2023-03-04T04:42:16.385Z,2.20
2023-03-04T04:45:01.833Z,2.30
2023-03-04T04:47:47.019Z,2.40
2023-03-04T04:50:33.180Z,2.10
2023-03-04T04:53:18.833Z,2.17
2023-03-04T04:56:18.442Z,2.70
2023-03-04T04:59:05.139Z,2.58
2023-03-04T05:01:50.616Z,2.60
2023-03-04T05:04:36.216Z,2.35
2023-03-04T05:07:21.486Z,2.53
2023-03-04T05:10:07.587Z,2.63
2023-03-04T05:12:53.162Z,2.20
2023-03-04T05:15:39.266Z,2.20
2023-03-04T05:18:26.992Z,2.05
2023-03-04T05:21:12.580Z,2.92
2023-03-04T05:23:58.244Z,1.83
2023-03-04T05:26:43.840Z,3.00
2023-03-04T05:29:29.262Z,2.58
2023-03-04T05:32:14.865Z,2.50
2023-03-04T05:35:00.216Z,2.38
2023-03-04T05:37:45.372Z,2.28
2023-03-04T05:40:30.913Z,2.92
2023-03-04T05:43:17.353Z,3.45
2023-03-04T05:46:04.539Z,3.42
2023-03-04T05:48:50.044Z,3.30
2023-03-04T05:51:35.430Z,2.83
2023-03-04T05:54:21.718Z,3.22
2023-03-04T05:57:07.102Z,3.65
2023-03-04T05:59:52.334Z,2.88
2023-03-04T06:02:38.042Z,4.25
2023-03-04T06:05:23.335Z,4.22
2023-03-04T06:08:08.712Z,4.10
2023-03-04T06:10:56.136Z,4.80
2023-03-04T06:13:41.780Z,6.22
2023-03-04T06:16:27.155Z,5.47
2023-03-04T06:19:12.445Z,5.43
2023-03-04T06:21:57.937Z,5.47
2023-03-04T06:24:43.219Z,6.43
2023-03-04T06:27:28.549Z,6.55
2023-03-04T06:30:14.392Z,6.53
2023-03-04T06:32:59.604Z,6.43
2023-03-04T06:35:44.985Z,6.65
2023-03-04T06:38:30.252Z,7.13
2023-03-04T06:41:15.988Z,6.93
2023-03-04T06:44:01.620Z,8.02
2023-03-04T06:46:47.091Z,8.63
2023-03-04T06:49:32.557Z,8.32
2023-03-04T06:52:17.789Z,7.18
2023-03-04T06:55:03.535Z,10.10
2023-03-04T06:57:49.099Z,8.85
2023-03-04T07:00:34.431Z,8.48
2023-03-04T07:03:19.773Z,8.75
2023-03-04T07:06:05.323Z,9.27
2023-03-04T07:08:51.448Z,9.18
2023-03-04T07:11:36.679Z,9.13
2023-03-04T07:14:24.107Z,10.68
2023-03-04T07:17:09.594Z,10.25
2023-03-04T07:19:54.886Z,10.13
2023-03-04T07:22:40.393Z,10.68
2023-03-04T07:25:25.718Z,10.23
2023-03-04T07:28:11.029Z,11.40
2023-03-04T07:30:56.500Z,11.18
2023-03-04T07:33:41.789Z,10.70
2023-03-04T07:36:27.689Z,12.25
2023-03-04T07:39:14.066Z,10.77
2023-03-04T07:41:59.621Z,12.45
2023-03-04T07:44:45.008Z,12.07
2023-03-04T07:47:30.391Z,11.27
2023-03-04T07:50:18.027Z,12.38
2023-03-04T07:53:03.630Z,11.25
2023-03-04T07:55:48.862Z,12.88
2023-03-04T07:58:34.582Z,11.23
2023-03-04T08:01:34.940Z,11.68
2023-03-04T08:04:20.240Z,11.40
2023-03-04T08:07:05.498Z,12.40
2023-03-04T08:09:51.102Z,12.52
2023-03-04T08:12:36.430Z,13.13
2023-03-04T08:15:21.589Z,12.50
2023-03-04T08:18:07.096Z,11.98
2023-03-04T08:20:52.604Z,12.50
2023-03-04T08:23:39.942Z,11.43
2023-03-04T08:26:31.618Z,13.02
2023-03-04T08:29:21.208Z,13.75
2023-03-04T08:32:07.109Z,12.27
2023-03-04T08:34:52.952Z,14.52
2023-03-04T08:37:38.782Z,11.90
2023-03-04T08:40:26.555Z,12.75
2023-03-04T08:43:11.859Z,13.40
2023-03-04T08:45:57.765Z,13.77
2023-03-04T08:48:43.365Z,13.90
2023-03-04T08:51:29.087Z,12.10
2023-03-04T08:54:14.794Z,12.00
2023-03-04T08:57:00.198Z,11.88
2023-03-04T08:59:45.714Z,12.80
2023-03-04T09:02:31.027Z,12.77
2023-03-04T09:05:16.556Z,12.02
2023-03-04T09:08:02.400Z,12.70
2023-03-04T09:10:48.152Z,12.20
2023-03-04T09:13:34.389Z,11.30
2023-03-04T09:16:19.805Z,11.77
2023-03-04T09:19:05.173Z,10.73
2023-03-04T09:21:50.385Z,11.93
2023-03-04T09:24:35.628Z,10.20
2023-03-04T09:27:21.191Z,10.48
2023-03-04T09:30:07.640Z,11.45
2023-03-04T09:32:53.091Z,9.98
2023-03-04T09:35:38.520Z,10.93
2023-03-04T09:38:24.980Z,12.20
2023-03-04T09:41:39.752Z,12.50
2023-03-04T09:44:41.534Z,9.73
2023-03-04T09:47:27.175Z,10.00
2023-03-04T09:50:13.419Z,10.80
2023-03-04T09:53:30.198Z,11.18
2023-03-04T09:56:15.546Z,10.35
2023-03-04T09:59:10.759Z,8.80
2023-03-04T10:01:59.719Z,10.65
2023-03-04T10:04:50.531Z,10.48
2023-03-04T10:07:40.920Z,9.13
2023-03-04T10:10:36.336Z,9.50
2023-03-04T10:13:32.395Z,9.20
2023-03-04T10:16:23.007Z,8.80
2023-03-04T10:19:08.229Z,9.45
2023-03-04T10:21:53.677Z,9.73
2023-03-04T10:24:39.506Z,9.27
2023-03-04T10:27:26.229Z,9.23
2023-03-04T10:30:27.025Z,9.68
2023-03-04T10:33:18.057Z,8.52
2023-03-04T10:36:22.820Z,9.00
2023-03-04T10:39:16.835Z,9.25
2023-03-04T10:42:05.474Z,8.60
2023-03-04T10:45:00.054Z,7.85
2023-03-04T10:47:52.585Z,8.73
2023-03-04T10:50:37.940Z,7.50
2023-03-04T10:53:36.001Z,8.75
2023-03-04T10:56:39.960Z,6.60
2023-03-04T10:59:36.213Z,8.30
2023-03-04T11:02:27.398Z,6.88
2023-03-04T11:05:12.648Z,8.40
2023-03-04T11:08:01.291Z,6.43
2023-03-04T11:10:47.815Z,6.80
2023-03-04T11:13:33.187Z,6.93
2023-03-04T11:16:31.279Z,6.45
2023-03-04T11:19:20.581Z,6.65
2023-03-04T11:22:06.504Z,6.90
2023-03-04T11:25:03.277Z,5.82
2023-03-04T11:27:54.367Z,6.93
2023-03-04T11:30:54.960Z,6.65
2023-03-04T11:34:13.697Z,5.80
2023-03-04T11:37:19.457Z,6.30
2023-03-04T11:40:23.987Z,5.10
2023-03-04T11:43:12.596Z,6.68
2023-03-04T11:46:11.611Z,6.78
2023-03-04T11:49:15.130Z,6.30
2023-03-04T11:52:35.820Z,6.90
2023-03-04T11:55:36.309Z,5.78
2023-03-04T11:58:35.043Z,5.18
2023-03-04T12:01:36.984Z,5.93
2023-03-04T12:04:31.760Z,5.45
2023-03-04T12:07:59.493Z,5.53
2023-03-04T12:11:05.879Z,4.75
2023-03-04T12:14:21.282Z,5.05
2023-03-04T12:17:41.500Z,6.00
2023-03-04T12:20:50.125Z,6.47
2023-03-04T12:24:14.087Z,5.60
2023-03-04T12:27:24.404Z,5.70
2023-03-04T12:30:34.682Z,5.25
2023-03-04T12:33:21.311Z,5.82
2023-03-04T12:36:21.276Z,6.82
2023-03-04T12:39:31.715Z,5.38
2023-03-04T12:42:40.615Z,4.70
2023-03-04T12:45:45.813Z,5.75
2023-03-04T12:48:47.526Z,5.45
2023-03-04T12:51:37.116Z,4.82
2023-03-04T12:54:39.176Z,5.18
2023-03-04T12:57:26.931Z,5.53
2023-03-04T13:00:51.210Z,5.50
2023-03-04T13:04:01.800Z,5.53
2023-03-04T13:07:02.748Z,5.85
2023-03-04T13:09:55.205Z,4.70
2023-03-04T13:12:51.770Z,4.43
2023-03-04T13:15:38.718Z,4.75
2023-03-04T13:18:27.464Z,5.40
2023-03-04T13:21:13.599Z,5.15
2023-03-04T13:24:21.920Z,4.57
2023-03-04T13:27:45.001Z,4.60
2023-03-04T13:30:33.656Z,5.13
2023-03-04T13:33:21.882Z,4.63
2023-03-04T13:36:28.048Z,4.85
2023-03-04T13:39:16.456Z,4.78
2023-03-04T13:42:02.895Z,4.85
2023-03-04T13:44:48.022Z,5.15
2023-03-04T13:47:45.675Z,4.43
2023-03-04T13:50:37.764Z,4.90
2023-03-04T13:56:23.994Z,5.85
2023-03-04T13:59:09.161Z,4.55
2023-03-04T14:02:15.883Z,4.72
2023-03-04T14:05:02.697Z,5.22
2023-03-04T14:07:48.205Z,5.25
2023-03-04T14:10:33.886Z,5.38
2023-03-04T14:13:19.420Z,5.20
2023-03-04T14:16:05.069Z,4.97
2023-03-04T14:18:58.120Z,4.93
2023-03-04T14:21:48.254Z,4.85
2023-03-04T14:24:33.605Z,5.57
2023-03-04T14:27:19.081Z,6.13
2023-03-04T14:30:08.156Z,5.57
2023-03-04T14:32:56.133Z,5.40
2023-03-04T14:35:47.678Z,5.18
2023-03-04T14:38:38.248Z,5.13
2023-03-04T14:41:38.023Z,4.38
2023-03-04T14:44:36.210Z,5.03
2023-03-04T14:47:36.283Z,4.60
2023-03-04T14:50:22.574Z,4.72
2023-03-04T14:53:10.904Z,4.50
2023-03-04T14:55:57.007Z,4.90
2023-03-04T14:58:55.061Z,5.03
2023-03-04T15:01:40.620Z,4.88
2023-03-04T15:04:26.041Z,5.18
2023-03-04T15:07:17.416Z,5.30
2023-03-04T15:10:07.285Z,4.90
2023-03-04T15:12:55.312Z,5.43
2023-03-04T15:15:40.785Z,5.55
2023-03-04T15:18:30.126Z,5.40
2023-03-04T15:21:21.466Z,5.57
2023-03-04T15:24:09.637Z,6.07
2023-03-04T15:26:56.095Z,5.03
2023-03-04T15:29:41.377Z,5.95
2023-03-04T15:32:28.341Z,6.93
2023-03-04T15:35:16.352Z,6.45
2023-03-04T15:38:02.517Z,9.38
2023-03-04T15:40:47.855Z,5.22
2023-03-04T15:43:33.399Z,6.32
2023-03-04T15:46:19.602Z,6.38
2023-03-04T15:49:05.220Z,6.03
2023-03-04T15:51:50.852Z,7.22
2023-03-04T15:54:36.227Z,5.15
2023-03-04T15:57:25.742Z,5.07
2023-03-04T16:00:12.249Z,6.07
2023-03-04T16:02:58.314Z,5.65
2023-03-04T16:05:45.009Z,6.68
2023-03-04T16:08:30.339Z,6.88
2023-03-04T16:11:18.928Z,6.10
2023-03-04T16:14:04.194Z,6.82
2023-03-04T16:16:50.577Z,6.60
2023-03-04T16:19:36.209Z,5.72
2023-03-04T16:22:24.801Z,5.07
2023-03-04T16:25:12.419Z,5.82
2023-03-04T16:28:07.890Z,5.85
2023-03-04T16:30:53.583Z,5.70
2023-03-04T16:33:39.019Z,6.20
2023-03-04T16:36:29.142Z,6.22
2023-03-04T16:39:22.194Z,6.38
2023-03-04T16:42:15.914Z,6.72
2023-03-04T16:45:01.212Z,5.38
2023-03-04T16:47:47.094Z,6.25
2023-03-04T16:50:32.550Z,6.13
2023-03-04T16:53:33.649Z,6.70
2023-03-04T16:56:19.839Z,6.03
2023-03-04T16:59:05.406Z,6.57
2023-03-04T17:01:50.923Z,7.03
2023-03-04T17:04:36.522Z,8.30
2023-03-04T17:07:21.887Z,7.50
2023-03-04T17:10:07.590Z,9.30
2023-03-04T17:12:53.576Z,7.05
2023-03-04T17:15:41.092Z,8.70
2023-03-04T17:18:26.963Z,11.18
2023-03-04T17:21:14.826Z,9.98
2023-03-04T17:24:00.203Z,10.30
2023-03-04T17:26:45.591Z,9.65
2023-03-04T17:29:30.968Z,13.23
2023-03-04T17:32:16.512Z,8.52
2023-03-04T17:35:03.362Z,8.10
2023-03-04T17:37:48.585Z,7.18
2023-03-04T17:40:34.233Z,11.13
2023-03-04T17:43:19.626Z,9.15
2023-03-04T17:46:07.873Z,8.43
2023-03-04T17:48:59.324Z,8.27
2023-03-04T17:51:45.246Z,6.10
2023-03-04T17:54:31.249Z,7.43
2023-03-04T17:57:16.767Z,7.28
2023-03-04T18:00:02.213Z,5.60
2023-03-04T18:02:49.891Z,9.40
2023-03-04T18:05:35.227Z,7.10
2023-03-04T18:08:22.176Z,8.93
2023-03-04T18:11:09.734Z,8.13
2023-03-04T18:13:56.723Z,8.50
2023-03-04T18:16:42.339Z,7.63
2023-03-04T18:19:28.048Z,8.48
2023-03-04T18:22:13.501Z,10.23
2023-03-04T18:24:58.892Z,8.95
2023-03-04T18:27:44.369Z,9.52
2023-03-04T18:30:29.797Z,9.38
2023-03-04T18:33:15.226Z,9.93
2023-03-04T18:36:06.705Z,8.80
2023-03-04T18:38:52.035Z,6.68
2023-03-04T18:41:37.377Z,7.78
2023-03-04T18:44:22.846Z,8.75
2023-03-04T18:47:08.808Z,8.88
2023-03-04T18:49:54.651Z,9.07
2023-03-04T18:52:40.408Z,7.57
2023-03-04T18:55:27.001Z,7.25
2023-03-04T18:58:12.691Z,7.47
2023-03-04T19:00:58.381Z,9.13
2023-03-04T19:03:45.451Z,8.48
2023-03-04T19:06:35.354Z,14.85
2023-03-04T19:09:21.164Z,39.25
2023-03-04T19:12:06.720Z,12.82
2023-03-04T19:14:52.425Z,15.77
2023-03-04T19:17:38.852Z,12.05
2023-03-04T19:20:24.485Z,12.10
2023-03-04T19:23:10.859Z,11.93
2023-03-04T19:25:56.260Z,10.02
2023-03-04T19:28:42.271Z,10.50
2023-03-04T19:31:27.832Z,15.52
2023-03-04T19:34:13.214Z,22.27
2023-03-04T19:36:58.522Z,18.70
2023-03-04T19:39:44.340Z,20.42
2023-03-04T19:42:29.835Z,11.82
2023-03-04T19:45:15.318Z,14.38
2023-03-04T19:48:03.021Z,18.77
2023-03-04T19:50:48.741Z,17.42
2023-03-04T19:53:34.987Z,12.48
2023-03-04T19:56:22.174Z,12.18
2023-03-04T19:59:07.845Z,12.00
2023-03-04T20:01:54.260Z,13.48
2023-03-04T20:04:39.855Z,14.00
2023-03-04T20:07:25.270Z,13.52
2023-03-04T20:10:11.837Z,12.63
2023-03-04T20:12:57.135Z,18.75
2023-03-04T20:15:44.120Z,15.18
2023-03-04T20:18:29.599Z,14.02
2023-03-04T20:21:15.325Z,15.20
2023-03-04T20:24:02.401Z,12.85
2023-03-04T20:26:48.024Z,15.55
2023-03-04T20:29:33.285Z,18.58
2023-03-04T20:32:18.654Z,17.33
2023-03-04T20:35:04.233Z,33.60
2023-03-04T20:37:49.774Z,25.17
2023-03-04T20:40:36.382Z,29.60
2023-03-04T20:43:24.165Z,19.83
2023-03-04T20:46:34.690Z,17.27
2023-03-04T20:49:24.203Z,14.55
2023-03-04T20:52:10.696Z,14.35
2023-03-04T20:54:56.322Z,12.48
2023-03-04T20:57:41.765Z,14.98
2023-03-04T21:00:27.071Z,15.13
2023-03-04T21:03:12.420Z,25.13
2023-03-04T21:06:03.674Z,21.75
2023-03-04T21:08:48.989Z,19.40
2023-03-04T21:11:40.541Z,15.38
2023-03-04T21:14:29.778Z,15.65
2023-03-04T21:17:15.428Z,14.23
2023-03-04T21:20:01.094Z,11.60
2023-03-04T21:22:46.646Z,12.40
2023-03-04T21:25:32.122Z,12.63
2023-03-04T21:28:18.928Z,15.35
2023-03-04T21:31:04.723Z,13.23
2023-03-04T21:33:52.616Z,13.35
2023-03-04T21:36:37.906Z,12.15
2023-03-04T21:39:25.023Z,12.20
2023-03-04T21:42:10.860Z,11.10
2023-03-04T21:44:56.319Z,10.80
2023-03-04T21:47:42.017Z,11.27
2023-03-04T21:50:27.298Z,9.45
2023-03-04T21:53:12.801Z,11.38
2023-03-04T21:55:58.426Z,11.00
2023-03-04T21:58:45.962Z,11.20
2023-03-04T22:01:32.864Z,11.30
2023-03-04T22:04:18.426Z,13.75
2023-03-04T22:07:04.000Z,13.25
2023-03-04T22:09:49.444Z,13.25
2023-03-04T22:12:34.796Z,12.48
2023-03-04T22:15:20.162Z,13.18
2023-03-04T22:18:07.269Z,14.10
2023-03-04T22:20:59.301Z,12.80
2023-03-04T22:23:45.299Z,12.82
2023-03-04T22:26:32.692Z,16.15
2023-03-04T22:29:18.534Z,13.93
2023-03-04T22:32:04.418Z,14.02
2023-03-04T22:34:50.104Z,15.68
2023-03-04T22:37:35.258Z,14.98
2023-03-04T22:40:20.764Z,14.13
2023-03-04T22:43:06.237Z,12.88
2023-03-04T22:45:52.263Z,14.07
2023-03-04T22:48:37.875Z,14.20
2023-03-04T22:51:23.713Z,13.93
2023-03-04T22:54:15.073Z,13.43
2023-03-04T22:57:00.668Z,14.48
2023-03-04T22:59:46.026Z,13.70
2023-03-04T23:02:31.335Z,15.23
2023-03-04T23:05:18.734Z,13.77
2023-03-04T23:08:04.087Z,14.68
2023-03-04T23:10:49.567Z,15.15
2023-03-04T23:13:35.258Z,12.55
2023-03-04T23:16:22.449Z,14.07
2023-03-04T23:19:08.550Z,12.73
2023-03-04T23:21:54.436Z,33.03
2023-03-04T23:24:39.719Z,15.70
2023-03-04T23:27:25.809Z,16.17
2023-03-04T23:30:16.920Z,12.20
2023-03-04T23:33:02.181Z,16.13
2023-03-04T23:35:47.885Z,15.25
2023-03-04T23:38:33.414Z,15.38
2023-03-04T23:41:22.514Z,13.07
2023-03-04T23:44:08.671Z,15.30
2023-03-04T23:46:54.050Z,18.70
2023-03-04T23:49:39.697Z,17.02
2023-03-04T23:52:25.114Z,14.77
2023-03-04T23:55:18.901Z,15.50
2023-03-04T23:58:04.363Z,13.93
